createdAt,value
2022-12-24T00:00:40.991Z,6.82
2022-12-24T00:01:41.054Z,6.75
2022-12-24T00:02:41.343Z,6.72
2022-12-24T00:03:41.612Z,6.74
2022-12-24T00:04:41.572Z,6.74
2022-12-24T00:05:41.756Z,6.72
2022-12-24T00:06:41.930Z,6.74
2022-12-24T00:07:42.113Z,6.74
2022-12-24T00:08:42.317Z,6.74
2022-12-24T00:09:42.514Z,6.72
2022-12-24T00:10:42.712Z,6.72
2022-12-24T00:11:42.916Z,6.72
2022-12-24T00:12:43.135Z,6.72
2022-12-24T00:13:43.353Z,6.77
2022-12-24T00:14:43.533Z,6.77
2022-12-24T00:15:43.721Z,6.75
2022-12-24T00:16:43.968Z,6.71
2022-12-24T00:17:44.036Z,6.70
2022-12-24T00:18:46.515Z,6.71
2022-12-24T00:19:44.404Z,6.71
2022-12-24T00:20:44.602Z,6.71
2022-12-24T00:21:44.810Z,6.70
2022-12-24T00:22:45.022Z,6.70
2022-12-24T00:23:45.225Z,6.67
2022-12-24T00:24:45.400Z,6.64
2022-12-24T00:25:45.608Z,6.59
2022-12-24T00:26:45.843Z,6.56
2022-12-24T00:27:46.188Z,6.57
2022-12-24T00:28:46.187Z,6.59
2022-12-24T00:29:46.259Z,6.62
2022-12-24T00:30:46.517Z,6.62
2022-12-24T00:31:46.598Z,6.59
2022-12-24T00:32:46.807Z,6.56
2022-12-24T00:33:47.001Z,6.54
2022-12-24T00:34:47.218Z,6.54
2022-12-24T00:35:47.380Z,6.52
2022-12-24T00:36:47.585Z,6.50
2022-12-24T00:37:47.776Z,6.52
2022-12-24T00:38:48.009Z,6.54
2022-12-24T00:39:48.073Z,6.54
2022-12-24T00:40:48.258Z,6.56
2022-12-24T00:41:48.434Z,6.52
2022-12-24T00:42:48.614Z,6.50
2022-12-24T00:43:48.817Z,6.50
2022-12-24T00:44:49.005Z,6.50
2022-12-24T00:45:49.209Z,6.53
2022-12-24T00:46:49.408Z,6.57
2022-12-24T00:47:49.572Z,6.54
2022-12-24T00:48:49.785Z,6.59
2022-12-24T00:49:49.963Z,6.57
2022-12-24T00:50:50.184Z,6.59
2022-12-24T00:51:50.274Z,6.54
2022-12-24T00:52:50.465Z,6.53
2022-12-24T00:53:50.661Z,6.56
2022-12-24T00:54:50.854Z,6.52
2022-12-24T00:55:51.032Z,6.50
2022-12-24T00:56:51.236Z,6.47
2022-12-24T00:57:51.427Z,6.49
2022-12-24T00:58:51.675Z,6.50
2022-12-24T00:59:51.717Z,6.54
2022-12-24T01:00:51.914Z,6.52
2022-12-24T01:01:52.200Z,6.49
2022-12-24T01:02:52.488Z,6.49
2022-12-24T01:03:52.517Z,6.50
2022-12-24T01:04:52.606Z,6.53
2022-12-24T01:05:52.670Z,6.53
2022-12-24T01:06:52.878Z,6.52
2022-12-24T01:07:53.074Z,6.50
2022-12-24T01:08:53.276Z,6.49
2022-12-24T01:09:53.445Z,6.46
2022-12-24T01:10:53.635Z,6.47
2022-12-24T01:11:53.829Z,6.49
2022-12-24T01:12:54.019Z,6.50
2022-12-24T01:13:54.214Z,6.52
2022-12-24T01:14:54.401Z,6.50
2022-12-24T01:15:54.658Z,6.52
2022-12-24T01:16:54.718Z,6.50
2022-12-24T01:17:54.883Z,6.53
2022-12-24T01:18:55.092Z,6.52
2022-12-24T01:19:55.247Z,6.52
2022-12-24T01:20:55.431Z,6.52
2022-12-24T01:21:55.603Z,6.53
2022-12-24T01:22:55.801Z,6.54
2022-12-24T01:23:55.985Z,6.49
2022-12-24T01:24:56.213Z,6.47
2022-12-24T01:25:56.278Z,6.46
2022-12-24T01:26:56.465Z,6.46
2022-12-24T01:27:56.652Z,6.49
2022-12-24T01:28:56.863Z,6.50
2022-12-24T01:29:57.058Z,6.49
2022-12-24T01:30:57.259Z,6.50
2022-12-24T01:31:57.439Z,6.54
2022-12-24T01:32:57.633Z,6.54
2022-12-24T01:33:57.812Z,6.54
2022-12-24T01:34:58.000Z,6.56
2022-12-24T01:35:58.169Z,6.53
2022-12-24T01:36:58.366Z,6.53
2022-12-24T01:37:58.546Z,6.52
2022-12-24T01:38:58.746Z,6.54
2022-12-24T01:39:58.927Z,6.56
2022-12-24T01:40:59.123Z,6.56
2022-12-24T01:41:59.302Z,6.56
2022-12-24T01:42:59.489Z,6.57
2022-12-24T01:43:59.675Z,6.56
2022-12-24T01:44:59.867Z,6.56
2022-12-24T01:46:00.064Z,6.57
2022-12-24T01:47:00.255Z,6.62
2022-12-24T01:48:00.436Z,6.60
2022-12-24T01:49:00.660Z,6.60
2022-12-24T01:50:00.849Z,6.59
2022-12-24T01:51:01.025Z,6.60
2022-12-24T01:52:01.222Z,6.64
2022-12-24T01:53:01.375Z,6.64
2022-12-24T01:54:01.572Z,6.67
2022-12-24T01:55:01.761Z,6.65
2022-12-24T01:56:01.948Z,6.64
2022-12-24T01:57:02.157Z,6.64
2022-12-24T01:58:02.375Z,6.67
2022-12-24T01:59:02.573Z,6.62
2022-12-24T02:00:02.759Z,6.64
2022-12-24T02:01:02.982Z,6.62
2022-12-24T02:02:03.188Z,6.64
2022-12-24T02:03:03.295Z,6.68
2022-12-24T02:04:03.318Z,6.70
2022-12-24T02:05:03.502Z,6.70
2022-12-24T02:06:03.697Z,6.65
2022-12-24T02:07:03.850Z,6.64
2022-12-24T02:08:04.014Z,6.62
2022-12-24T02:09:04.238Z,6.65
2022-12-24T02:10:04.397Z,6.65
2022-12-24T02:11:04.572Z,6.64
2022-12-24T02:12:04.744Z,6.67
2022-12-24T02:13:04.924Z,6.67
2022-12-24T02:14:05.097Z,6.64
2022-12-24T02:15:05.279Z,6.62
2022-12-24T02:16:05.480Z,6.64
2022-12-24T02:17:05.621Z,6.64
2022-12-24T02:18:05.805Z,6.62
2022-12-24T02:19:06.017Z,6.64
2022-12-24T02:20:06.175Z,6.65
2022-12-24T02:21:06.355Z,6.65
2022-12-24T02:22:06.536Z,6.67
2022-12-24T02:23:06.740Z,6.67
2022-12-24T02:24:06.934Z,6.70
2022-12-24T02:25:07.127Z,6.71
2022-12-24T02:26:07.322Z,6.72
2022-12-24T02:27:07.504Z,6.72
2022-12-24T02:28:07.675Z,6.71
2022-12-24T02:29:07.869Z,6.70
2022-12-24T02:30:08.051Z,6.68
2022-12-24T02:31:08.271Z,6.68
2022-12-24T02:32:08.445Z,6.67
2022-12-24T02:33:08.636Z,6.68
2022-12-24T02:34:08.837Z,6.70
2022-12-24T02:35:09.021Z,6.68
2022-12-24T02:36:09.190Z,6.70
2022-12-24T02:37:09.372Z,6.68
2022-12-24T02:38:09.549Z,6.67
2022-12-24T02:39:09.768Z,6.65
2022-12-24T02:40:16.100Z,6.65
2022-12-24T02:41:11.069Z,6.67
2022-12-24T02:42:10.247Z,6.67
2022-12-24T02:43:10.443Z,6.70
2022-12-24T02:44:10.642Z,6.70
2022-12-24T02:45:10.811Z,6.68
2022-12-24T02:46:11.022Z,6.65
2022-12-24T02:47:11.220Z,6.65
2022-12-24T02:48:11.314Z,6.64
2022-12-24T02:49:11.530Z,6.64
2022-12-24T02:50:11.712Z,6.70
2022-12-24T02:51:11.916Z,6.70
2022-12-24T02:52:12.081Z,6.65
2022-12-24T02:53:12.259Z,6.64
2022-12-24T02:54:12.460Z,6.62
2022-12-24T02:55:12.649Z,6.62
2022-12-24T02:56:12.812Z,6.60
2022-12-24T02:57:13.005Z,6.65
2022-12-24T02:58:13.150Z,6.64
2022-12-24T02:59:13.352Z,6.62
2022-12-24T03:00:13.548Z,6.60
2022-12-24T03:01:13.787Z,6.62
2022-12-24T03:02:13.998Z,6.62
2022-12-24T03:03:14.099Z,6.59
2022-12-24T03:04:14.295Z,6.59
2022-12-24T03:05:14.484Z,6.64
2022-12-24T03:06:14.669Z,6.62
2022-12-24T03:07:14.840Z,6.64
2022-12-24T03:08:15.024Z,6.65
2022-12-24T03:09:15.239Z,6.64
2022-12-24T03:10:15.406Z,6.62
2022-12-24T03:11:15.593Z,6.62
2022-12-24T03:12:15.775Z,6.60
2022-12-24T03:13:15.973Z,6.64
2022-12-24T03:14:16.172Z,6.65
2022-12-24T03:15:16.355Z,6.67
2022-12-24T03:16:16.644Z,6.65
2022-12-24T03:17:16.763Z,6.64
2022-12-24T03:18:16.966Z,6.64
2022-12-24T03:19:17.171Z,6.65
2022-12-24T03:20:17.340Z,6.67
2022-12-24T03:21:17.534Z,6.67
2022-12-24T03:22:17.720Z,6.67
2022-12-24T03:23:17.929Z,6.67
2022-12-24T03:24:18.126Z,6.64
2022-12-24T03:25:18.320Z,6.59
2022-12-24T03:26:18.484Z,6.54
2022-12-24T03:27:18.684Z,6.54
2022-12-24T03:28:18.853Z,6.53
2022-12-24T03:29:19.049Z,6.53
2022-12-24T03:30:19.237Z,6.53
2022-12-24T03:31:19.483Z,6.54
2022-12-24T03:32:19.598Z,6.54
2022-12-24T03:33:19.775Z,6.53
2022-12-24T03:34:19.959Z,6.54
2022-12-24T03:35:20.147Z,6.54
2022-12-24T03:36:20.340Z,6.54
2022-12-24T03:37:20.521Z,6.56
2022-12-24T03:38:20.723Z,6.54
2022-12-24T03:39:20.925Z,6.54
2022-12-24T03:40:21.097Z,6.56
2022-12-24T03:41:21.265Z,6.54
2022-12-24T03:42:21.443Z,6.50
2022-12-24T03:43:21.616Z,6.50
2022-12-24T03:44:21.813Z,6.49
2022-12-24T03:45:21.984Z,6.50
2022-12-24T03:46:22.236Z,6.53
2022-12-24T03:47:22.381Z,6.54
2022-12-24T03:48:32.937Z,6.56
2022-12-24T03:49:22.753Z,6.56
2022-12-24T03:50:22.952Z,6.56
2022-12-24T03:51:23.132Z,6.56
2022-12-24T03:52:23.317Z,6.56
2022-12-24T03:53:23.493Z,6.56
2022-12-24T03:54:23.703Z,6.54
2022-12-24T03:55:23.880Z,6.53
2022-12-24T03:56:24.075Z,6.53
2022-12-24T03:57:24.236Z,6.54
2022-12-24T03:58:24.425Z,6.56
2022-12-24T03:59:24.618Z,6.53
2022-12-24T04:00:24.771Z,6.49
2022-12-24T04:01:25.038Z,6.52
2022-12-24T04:02:25.289Z,6.52
2022-12-24T04:03:25.363Z,6.53
2022-12-24T04:04:25.476Z,6.54
2022-12-24T04:05:25.561Z,6.52
2022-12-24T04:06:25.769Z,6.47
2022-12-24T04:07:25.844Z,6.52
2022-12-24T04:08:26.035Z,6.53
2022-12-24T04:09:26.226Z,6.50
2022-12-24T04:10:26.419Z,6.49
2022-12-24T04:11:26.586Z,6.53
2022-12-24T04:12:26.770Z,6.56
2022-12-24T04:13:26.937Z,6.57
2022-12-24T04:14:27.135Z,6.52
2022-12-24T04:15:27.315Z,6.50
2022-12-24T04:16:27.554Z,6.52
2022-12-24T04:17:27.631Z,6.49
2022-12-24T04:18:27.815Z,6.47
2022-12-24T04:19:28.016Z,6.47
2022-12-24T04:20:28.194Z,6.47
2022-12-24T04:21:28.395Z,6.44
2022-12-24T04:22:28.572Z,6.44
2022-12-24T04:23:28.744Z,6.47
2022-12-24T04:24:28.946Z,6.53
2022-12-24T04:25:29.118Z,6.56
2022-12-24T04:26:29.299Z,6.56
2022-12-24T04:27:30.788Z,6.60
2022-12-24T04:28:29.593Z,6.60
2022-12-24T04:29:29.778Z,6.56
2022-12-24T04:30:29.968Z,6.47
2022-12-24T04:31:30.210Z,6.46
2022-12-24T04:32:30.273Z,6.44
2022-12-24T04:33:30.439Z,6.41
2022-12-24T04:34:30.639Z,6.46
2022-12-24T04:35:30.808Z,6.46
2022-12-24T04:36:30.989Z,6.47
2022-12-24T04:37:31.164Z,6.47
2022-12-24T04:38:31.350Z,6.47
2022-12-24T04:39:31.564Z,6.46
2022-12-24T04:40:31.744Z,6.47
2022-12-24T04:41:31.923Z,6.49
2022-12-24T04:42:32.105Z,6.50
2022-12-24T04:43:32.271Z,6.52
2022-12-24T04:44:32.488Z,6.52
2022-12-24T04:45:32.689Z,6.52
2022-12-24T04:46:32.911Z,6.53
2022-12-24T04:47:33.007Z,6.54
2022-12-24T04:48:33.178Z,6.56
2022-12-24T04:49:33.354Z,6.54
2022-12-24T04:50:33.559Z,6.49
2022-12-24T04:51:33.729Z,6.46
2022-12-24T04:52:33.905Z,6.41
2022-12-24T04:53:34.084Z,6.41
2022-12-24T04:54:34.309Z,6.43
2022-12-24T04:55:34.365Z,6.47
2022-12-24T04:56:34.536Z,6.43
2022-12-24T04:57:34.725Z,6.43
2022-12-24T04:58:34.914Z,6.46
2022-12-24T04:59:35.077Z,6.47
2022-12-24T05:00:35.293Z,6.49
2022-12-24T05:02:33.668Z,6.46
2022-12-24T05:03:33.585Z,6.47
2022-12-24T05:04:33.718Z,6.46
2022-12-24T05:05:33.871Z,6.44
2022-12-24T05:06:33.980Z,6.47
2022-12-24T05:07:34.159Z,6.52
2022-12-24T05:08:34.329Z,6.54
2022-12-24T05:09:34.499Z,6.52
2022-12-24T05:10:34.683Z,6.47
2022-12-24T05:11:34.883Z,6.47
2022-12-24T05:12:35.053Z,6.46
2022-12-24T05:13:44.092Z,6.46
2022-12-24T05:14:36.349Z,6.44
2022-12-24T05:15:35.590Z,6.46
2022-12-24T05:16:35.674Z,6.44
2022-12-24T05:17:35.742Z,6.44
2022-12-24T05:18:35.898Z,6.47
2022-12-24T05:19:36.072Z,6.43
2022-12-24T05:20:36.254Z,6.38
2022-12-24T05:21:36.455Z,6.34
2022-12-24T05:22:36.610Z,6.32
2022-12-24T05:23:36.806Z,6.32
2022-12-24T05:24:36.970Z,6.36
2022-12-24T05:25:40.644Z,6.32
2022-12-24T05:26:37.250Z,6.28
2022-12-24T05:27:37.417Z,6.28
2022-12-24T05:28:37.575Z,6.34
2022-12-24T05:29:37.750Z,6.31
2022-12-24T05:30:39.919Z,6.31
2022-12-24T05:31:38.088Z,6.32
2022-12-24T05:32:38.248Z,6.31
2022-12-24T05:33:38.426Z,6.26
2022-12-24T05:34:38.589Z,6.26
2022-12-24T05:35:38.762Z,6.25
2022-12-24T05:36:38.921Z,6.26
2022-12-24T05:37:39.091Z,6.26
2022-12-24T05:38:39.266Z,6.26
2022-12-24T05:39:39.457Z,6.26
2022-12-24T05:40:39.625Z,6.26
2022-12-24T05:41:39.805Z,6.26
2022-12-24T05:42:40.025Z,6.26
2022-12-24T05:43:40.173Z,6.26
2022-12-24T05:44:40.333Z,6.29
2022-12-24T05:45:40.517Z,6.29
2022-12-24T05:46:40.822Z,6.25
2022-12-24T05:47:43.380Z,6.22
2022-12-24T05:48:41.056Z,6.19
2022-12-24T05:49:41.129Z,6.17
2022-12-24T05:50:41.296Z,6.19
2022-12-24T05:51:41.473Z,6.22
2022-12-24T05:52:41.596Z,6.25
2022-12-24T05:53:41.762Z,6.20
2022-12-24T05:54:41.928Z,6.19
2022-12-24T05:55:42.115Z,6.17
2022-12-24T05:56:42.327Z,6.15
2022-12-24T05:57:42.539Z,6.16
2022-12-24T05:58:42.589Z,6.16
2022-12-24T05:59:42.776Z,6.17
2022-12-24T06:00:43.028Z,6.16
2022-12-24T06:01:43.119Z,6.19
2022-12-24T06:02:43.346Z,6.19
2022-12-24T06:03:43.462Z,6.20
2022-12-24T06:04:43.589Z,6.17
2022-12-24T06:05:43.694Z,6.17
2022-12-24T06:06:43.865Z,6.16
2022-12-24T06:07:44.086Z,6.13
2022-12-24T06:08:44.238Z,6.16
2022-12-24T06:09:44.409Z,6.15
2022-12-24T06:10:44.585Z,6.16
2022-12-24T06:11:44.768Z,6.17
2022-12-24T06:12:44.933Z,6.16
2022-12-24T06:13:45.137Z,6.17
2022-12-24T06:14:45.307Z,6.19
2022-12-24T06:15:45.546Z,6.19
2022-12-24T06:16:45.602Z,6.17
2022-12-24T06:17:45.783Z,6.19
2022-12-24T06:18:45.973Z,6.26
2022-12-24T06:19:46.144Z,6.22
2022-12-24T06:20:46.356Z,6.22
2022-12-24T06:21:46.537Z,6.28
2022-12-24T06:22:46.702Z,6.20
2022-12-24T06:23:46.876Z,6.17
2022-12-24T06:24:47.057Z,6.19
2022-12-24T06:25:47.238Z,6.19
2022-12-24T06:26:47.326Z,6.17
2022-12-24T06:27:47.504Z,6.19
2022-12-24T06:28:47.704Z,6.20
2022-12-24T06:29:47.860Z,6.20
2022-12-24T06:30:48.077Z,6.20
2022-12-24T06:31:48.223Z,6.20
2022-12-24T06:32:48.332Z,6.25
2022-12-24T06:33:48.526Z,6.20
2022-12-24T06:34:48.736Z,6.22
2022-12-24T06:35:48.926Z,6.26
2022-12-24T06:36:49.105Z,6.28
2022-12-24T06:37:49.292Z,6.25
2022-12-24T06:38:49.433Z,6.20
2022-12-24T06:39:49.612Z,6.19
2022-12-24T06:40:49.873Z,6.19
2022-12-24T06:41:49.921Z,6.17
2022-12-24T06:42:50.115Z,6.19
2022-12-24T06:43:50.306Z,6.17
2022-12-24T06:44:50.481Z,6.17
2022-12-24T06:45:50.697Z,6.19
2022-12-24T06:46:50.905Z,6.25
2022-12-24T06:47:51.095Z,6.22
2022-12-24T06:48:51.304Z,6.25
2022-12-24T06:49:51.463Z,6.26
2022-12-24T06:50:51.656Z,6.22
2022-12-24T06:51:51.833Z,6.20
2022-12-24T06:52:52.043Z,6.22
2022-12-24T06:53:52.233Z,6.20
2022-12-24T06:54:52.417Z,6.19
2022-12-24T06:55:52.555Z,6.19
2022-12-24T06:56:52.736Z,6.26
2022-12-24T06:57:52.936Z,6.25
2022-12-24T06:58:53.076Z,6.25
2022-12-24T06:59:53.160Z,6.26
2022-12-24T07:00:53.356Z,6.26
2022-12-24T07:01:53.605Z,6.26
2022-12-24T07:02:53.796Z,6.28
2022-12-24T07:03:54.004Z,6.22
2022-12-24T07:04:54.102Z,6.17
2022-12-24T07:05:54.308Z,6.17
2022-12-24T07:06:54.483Z,6.16
2022-12-24T07:07:54.700Z,6.13
2022-12-24T07:08:54.931Z,6.16
2022-12-24T07:09:54.939Z,6.19
2022-12-24T07:10:55.127Z,6.20
2022-12-24T07:11:55.358Z,6.22
2022-12-24T07:12:55.421Z,6.26
2022-12-24T07:13:55.633Z,6.25
2022-12-24T07:14:55.825Z,6.20
2022-12-24T07:15:56.077Z,6.15
2022-12-24T07:16:59.157Z,6.13
2022-12-24T07:17:56.394Z,6.10
2022-12-24T07:18:56.457Z,6.12
2022-12-24T07:19:56.651Z,6.15
2022-12-24T07:20:56.909Z,6.15
2022-12-24T07:21:57.009Z,6.17
2022-12-24T07:22:57.085Z,6.19
2022-12-24T07:23:57.286Z,6.22
2022-12-24T07:24:57.489Z,6.22
2022-12-24T07:25:57.700Z,6.22
2022-12-24T07:26:57.888Z,6.20
2022-12-24T07:27:58.098Z,6.25
2022-12-24T07:28:58.323Z,6.28
2022-12-24T07:29:58.519Z,6.31
2022-12-24T07:30:58.788Z,6.32
2022-12-24T07:31:58.961Z,6.35
2022-12-24T07:32:58.987Z,6.38
2022-12-24T07:33:59.089Z,6.35
2022-12-24T07:34:59.300Z,6.34
2022-12-24T07:35:59.502Z,6.34
2022-12-24T07:36:59.705Z,6.31
2022-12-24T07:37:59.911Z,6.29
2022-12-24T07:39:00.128Z,6.29
2022-12-24T07:40:00.217Z,6.26
2022-12-24T07:41:00.440Z,6.22
2022-12-24T07:42:00.546Z,6.22
2022-12-24T07:43:00.651Z,6.28
2022-12-24T07:44:00.844Z,6.35
2022-12-24T07:45:00.950Z,6.38
2022-12-24T07:46:01.044Z,6.39
2022-12-24T07:47:01.329Z,6.36
2022-12-24T07:48:01.410Z,6.29
2022-12-24T07:49:01.629Z,6.25
2022-12-24T07:50:01.740Z,6.28
2022-12-24T07:51:01.985Z,6.31
2022-12-24T07:52:02.077Z,6.34
2022-12-24T07:53:02.262Z,6.35
2022-12-24T07:54:02.364Z,6.41
2022-12-24T07:55:02.579Z,6.43
2022-12-24T07:56:07.535Z,6.47
2022-12-24T07:57:03.935Z,6.52
2022-12-24T07:58:03.149Z,6.56
2022-12-24T07:59:03.355Z,6.59
2022-12-24T08:00:03.470Z,6.57
2022-12-24T08:01:03.614Z,6.56
2022-12-24T08:02:04.021Z,6.60
2022-12-24T08:03:04.101Z,6.68
2022-12-24T08:04:04.066Z,6.71
2022-12-24T08:05:04.166Z,6.70
2022-12-24T08:06:04.282Z,6.65
2022-12-24T08:07:04.369Z,6.65
2022-12-24T08:08:04.575Z,6.64
2022-12-24T08:09:04.763Z,6.67
2022-12-24T08:10:04.946Z,6.68
2022-12-24T08:11:05.157Z,6.70
2022-12-24T08:12:05.319Z,6.67
2022-12-24T08:13:05.512Z,6.67
2022-12-24T08:14:05.721Z,6.67
2022-12-24T08:15:05.931Z,6.59
2022-12-24T08:16:06.231Z,6.56
2022-12-24T08:17:06.358Z,6.54
2022-12-24T08:18:06.414Z,6.54
2022-12-24T08:19:06.625Z,6.59
2022-12-24T08:20:06.828Z,6.60
2022-12-24T08:21:07.044Z,6.59
2022-12-24T08:22:07.238Z,6.53
2022-12-24T08:23:07.464Z,6.52
2022-12-24T08:24:07.540Z,6.54
2022-12-24T08:25:07.753Z,6.52
2022-12-24T08:26:07.967Z,6.49
2022-12-24T08:27:08.175Z,6.53
2022-12-24T08:28:08.360Z,6.56
2022-12-24T08:29:07.670Z,6.53
2022-12-24T08:30:08.574Z,6.49
2022-12-24T08:31:08.064Z,6.49
2022-12-24T08:32:08.168Z,6.50
2022-12-24T08:33:08.250Z,6.53
2022-12-24T08:34:08.464Z,6.54
2022-12-24T08:35:08.633Z,6.53
2022-12-24T08:36:08.822Z,6.54
2022-12-24T08:37:09.044Z,6.53
2022-12-24T08:38:09.176Z,6.53
2022-12-24T08:39:09.386Z,6.52
2022-12-24T08:40:09.577Z,6.49
2022-12-24T08:41:09.801Z,6.43
2022-12-24T08:42:10.005Z,6.46
2022-12-24T08:43:10.110Z,6.50
2022-12-24T08:44:10.176Z,6.53
2022-12-24T08:45:10.385Z,6.54
2022-12-24T08:46:10.550Z,6.56
2022-12-24T08:47:10.636Z,6.54
2022-12-24T08:48:10.856Z,6.50
2022-12-24T08:49:11.040Z,6.49
2022-12-24T08:50:11.223Z,6.49
2022-12-24T08:51:11.439Z,6.50
2022-12-24T08:52:11.527Z,6.53
2022-12-24T08:53:11.732Z,6.57
2022-12-24T08:54:11.819Z,6.57
2022-12-24T08:55:12.026Z,6.59
2022-12-24T08:56:12.253Z,6.62
2022-12-24T08:57:12.398Z,6.60
2022-12-24T08:58:12.494Z,6.64
2022-12-24T08:59:12.693Z,6.68
2022-12-24T09:00:12.913Z,6.65
2022-12-24T09:01:13.275Z,6.59
2022-12-24T09:02:13.444Z,6.59
2022-12-24T09:03:14.388Z,6.60
2022-12-24T09:04:13.561Z,6.65
2022-12-24T09:05:13.638Z,6.68
2022-12-24T09:06:13.848Z,6.71
2022-12-24T09:07:14.073Z,6.75
2022-12-24T09:08:14.137Z,6.78
2022-12-24T09:09:14.347Z,6.77
2022-12-24T09:10:14.432Z,6.74
2022-12-24T09:11:14.631Z,6.68
2022-12-24T09:12:14.818Z,6.70
2022-12-24T09:13:15.006Z,6.64
2022-12-24T09:14:15.193Z,6.59
2022-12-24T09:15:15.388Z,6.57
2022-12-24T09:16:15.662Z,6.59
2022-12-24T09:17:15.994Z,6.59
2022-12-24T09:18:15.836Z,6.59
2022-12-24T09:19:16.036Z,6.60
2022-12-24T09:20:16.217Z,6.62
2022-12-24T09:21:16.452Z,6.64
2022-12-24T09:22:16.531Z,6.68
2022-12-24T09:23:16.761Z,6.70
2022-12-24T09:24:16.832Z,6.72
2022-12-24T09:25:17.055Z,6.68
2022-12-24T09:26:17.167Z,6.67
2022-12-24T09:27:17.376Z,6.67
2022-12-24T09:28:17.562Z,6.68
2022-12-24T09:29:17.764Z,6.62
2022-12-24T09:30:17.867Z,6.60
2022-12-24T09:31:18.084Z,6.54
2022-12-24T09:32:18.214Z,6.53
2022-12-24T09:33:18.350Z,6.54
2022-12-24T09:34:18.540Z,6.57
2022-12-24T09:35:18.733Z,6.59
2022-12-24T09:36:19.410Z,6.60
2022-12-24T09:37:19.056Z,6.67
2022-12-24T09:38:19.248Z,6.71
2022-12-24T09:39:19.459Z,6.75
2022-12-24T09:40:19.627Z,6.74
2022-12-24T09:41:19.826Z,6.75
2022-12-24T09:42:20.016Z,6.80
2022-12-24T09:43:20.224Z,6.85
2022-12-24T09:44:20.309Z,6.86
2022-12-24T09:45:20.531Z,6.90
2022-12-24T09:46:20.663Z,6.95
2022-12-24T09:47:20.744Z,7.01
2022-12-24T09:48:21.112Z,7.03
2022-12-24T09:49:21.068Z,7.04
2022-12-24T09:50:21.283Z,7.10
2022-12-24T09:51:21.361Z,7.10
2022-12-24T09:52:21.532Z,7.10
2022-12-24T09:53:21.722Z,7.11
2022-12-24T09:54:21.886Z,7.14
2022-12-24T09:55:22.060Z,7.18
2022-12-24T09:56:22.248Z,7.22
2022-12-24T09:57:22.435Z,7.26
2022-12-24T09:58:22.641Z,7.29
2022-12-24T09:59:22.855Z,7.32
2022-12-24T10:00:23.017Z,7.32
2022-12-24T10:01:23.324Z,7.33
2022-12-24T10:02:23.486Z,7.33
2022-12-24T10:03:23.542Z,7.36
2022-12-24T10:04:23.647Z,7.37
2022-12-24T10:05:23.824Z,7.40
2022-12-24T10:06:28.925Z,7.41
2022-12-24T10:07:25.155Z,7.44
2022-12-24T10:08:24.359Z,7.47
2022-12-24T10:09:24.430Z,7.48
2022-12-24T10:10:24.618Z,7.41
2022-12-24T10:11:24.831Z,7.41
2022-12-24T10:12:25.020Z,7.47
2022-12-24T10:13:25.117Z,7.50
2022-12-24T10:14:25.200Z,7.56
2022-12-24T10:15:25.251Z,7.56
2022-12-24T10:16:25.532Z,7.56
2022-12-24T10:17:25.590Z,7.62
2022-12-24T10:18:25.650Z,7.66
2022-12-24T10:19:25.844Z,7.64
2022-12-24T10:20:25.990Z,7.64
2022-12-24T10:21:26.169Z,7.59
2022-12-24T10:22:26.342Z,7.66
2022-12-24T10:23:26.513Z,7.67
2022-12-24T10:24:26.710Z,7.66
2022-12-24T10:25:26.937Z,7.67
2022-12-24T10:26:27.025Z,7.69
2022-12-24T10:27:27.140Z,7.62
2022-12-24T10:28:27.181Z,7.66
2022-12-24T10:29:27.367Z,7.67
2022-12-24T10:30:27.526Z,7.70
2022-12-24T10:31:27.980Z,7.69
2022-12-24T10:32:27.921Z,7.69
2022-12-24T10:33:28.087Z,7.69
2022-12-24T10:34:28.242Z,7.67
2022-12-24T10:35:28.422Z,7.69
2022-12-24T10:36:28.608Z,7.67
2022-12-24T10:37:28.814Z,7.67
2022-12-24T10:38:28.940Z,7.64
2022-12-24T10:39:29.110Z,7.66
2022-12-24T10:40:29.267Z,7.69
2022-12-24T10:41:29.394Z,7.69
2022-12-24T10:42:29.506Z,7.74
2022-12-24T10:43:29.650Z,7.77
2022-12-24T10:44:29.798Z,7.77
2022-12-24T10:45:29.984Z,7.70
2022-12-24T10:46:30.143Z,7.69
2022-12-24T10:47:30.283Z,7.72
2022-12-24T10:48:30.439Z,7.72
2022-12-24T10:49:30.611Z,7.75
2022-12-24T10:50:30.793Z,7.83
2022-12-24T10:51:30.957Z,7.85
2022-12-24T10:52:31.194Z,7.87
2022-12-24T10:53:31.244Z,7.88
2022-12-24T10:54:31.398Z,7.90
2022-12-24T10:55:31.561Z,7.91
2022-12-24T10:56:31.724Z,7.95
2022-12-24T10:57:31.880Z,7.99
2022-12-24T10:58:32.164Z,7.95
2022-12-24T10:59:32.219Z,7.96
2022-12-24T11:00:36.131Z,7.99
2022-12-24T11:01:32.508Z,8.02
2022-12-24T11:02:40.265Z,8.05
2022-12-24T11:03:32.778Z,8.09
2022-12-24T11:04:34.544Z,8.03
2022-12-24T11:05:33.080Z,8.02
2022-12-24T11:06:33.227Z,8.01
2022-12-24T11:07:33.279Z,7.98
2022-12-24T11:08:33.456Z,7.99
2022-12-24T11:09:33.672Z,7.95
2022-12-24T11:10:33.753Z,7.96
2022-12-24T11:11:33.825Z,7.99
2022-12-24T11:12:34.033Z,8.01
2022-12-24T11:13:38.740Z,7.98
2022-12-24T11:14:35.230Z,7.98
2022-12-24T11:15:34.341Z,7.96
2022-12-24T11:16:34.406Z,7.91
2022-12-24T11:17:34.528Z,7.95
2022-12-24T11:18:34.705Z,7.98
2022-12-24T11:19:34.851Z,7.98
2022-12-24T11:20:35.026Z,8.01
2022-12-24T11:21:35.207Z,8.06
2022-12-24T11:22:35.428Z,8.05
2022-12-24T11:23:35.477Z,8.11
2022-12-24T11:24:35.667Z,8.09
2022-12-24T11:25:35.820Z,8.13
2022-12-24T11:26:36.023Z,8.16
2022-12-24T11:27:36.079Z,8.17
2022-12-24T11:28:36.256Z,8.24
2022-12-24T11:29:36.504Z,8.27
2022-12-24T11:30:36.579Z,8.32
2022-12-24T11:31:36.755Z,8.35
2022-12-24T11:32:36.765Z,8.41
2022-12-24T11:33:36.917Z,8.41
2022-12-24T11:34:37.076Z,8.45
2022-12-24T11:35:37.224Z,8.46
2022-12-24T11:36:37.412Z,8.52
2022-12-24T11:37:37.567Z,8.54
2022-12-24T11:38:37.733Z,8.59
2022-12-24T11:39:37.868Z,8.54
2022-12-24T11:40:38.019Z,8.52
2022-12-24T11:41:38.208Z,8.52
2022-12-24T11:42:38.343Z,8.46
2022-12-24T11:43:38.562Z,8.50
2022-12-24T11:44:38.620Z,8.49
2022-12-24T11:45:38.817Z,8.46
2022-12-24T11:46:38.939Z,8.49
2022-12-24T11:47:39.039Z,8.52
2022-12-24T11:48:39.164Z,8.49
2022-12-24T11:49:39.290Z,8.46
2022-12-24T11:50:39.441Z,8.44
2022-12-24T11:51:39.600Z,8.42
2022-12-24T11:52:39.768Z,8.39
2022-12-24T11:53:39.943Z,8.35
2022-12-24T11:54:40.121Z,8.32
2022-12-24T11:55:40.300Z,8.35
2022-12-24T11:56:40.469Z,8.38
2022-12-24T11:57:40.649Z,8.38
2022-12-24T11:58:40.815Z,8.38
2022-12-24T11:59:40.987Z,8.42
2022-12-24T12:00:41.165Z,8.41
2022-12-24T12:01:41.386Z,8.41
2022-12-24T12:02:41.449Z,8.45
2022-12-24T12:03:41.623Z,8.46
2022-12-24T12:04:41.757Z,8.53
2022-12-24T12:05:41.907Z,8.56
2022-12-24T12:06:42.076Z,8.57
2022-12-24T12:07:42.255Z,8.57
2022-12-24T12:08:42.414Z,8.61
2022-12-24T12:09:42.590Z,8.59
2022-12-24T12:10:42.745Z,8.59
2022-12-24T12:11:42.910Z,8.63
2022-12-24T12:12:43.057Z,8.68
2022-12-24T12:13:43.206Z,8.72
2022-12-24T12:14:43.368Z,8.68
2022-12-24T12:15:43.564Z,8.69
2022-12-24T12:16:43.645Z,8.69
2022-12-24T12:17:43.795Z,8.71
2022-12-24T12:18:43.938Z,8.71
2022-12-24T12:19:44.122Z,8.72
2022-12-24T12:20:44.280Z,8.74
2022-12-24T12:21:44.525Z,8.75
2022-12-24T12:22:44.565Z,8.78
2022-12-24T12:23:44.699Z,8.81
2022-12-24T12:24:44.865Z,8.86
2022-12-24T12:25:45.038Z,8.86
2022-12-24T12:26:45.198Z,8.81
2022-12-24T12:27:45.355Z,8.82
2022-12-24T12:28:45.523Z,8.84
2022-12-24T12:29:45.713Z,8.87
2022-12-24T12:30:45.770Z,8.89
2022-12-24T12:31:45.990Z,8.89
2022-12-24T12:32:46.153Z,8.93
2022-12-24T12:33:46.127Z,8.95
2022-12-24T12:34:46.258Z,9.00
2022-12-24T12:35:46.489Z,9.09
2022-12-24T12:36:46.544Z,9.11
2022-12-24T12:37:46.672Z,9.15
2022-12-24T12:38:46.825Z,9.18
2022-12-24T12:39:46.977Z,9.16
2022-12-24T12:40:47.158Z,9.15
2022-12-24T12:41:47.192Z,9.13
2022-12-24T12:42:47.350Z,9.15
2022-12-24T12:43:47.570Z,9.11
2022-12-24T12:44:47.608Z,9.13
2022-12-24T12:45:47.765Z,9.13
2022-12-24T12:46:47.986Z,9.13
2022-12-24T12:47:48.048Z,9.13
2022-12-24T12:48:48.217Z,9.12
2022-12-24T12:49:48.359Z,9.12
2022-12-24T12:50:48.536Z,9.12
2022-12-24T12:51:48.693Z,9.13
2022-12-24T12:52:48.880Z,9.13
2022-12-24T12:53:48.907Z,9.15
2022-12-24T12:54:49.067Z,9.15
2022-12-24T12:55:49.248Z,9.16
2022-12-24T12:56:49.468Z,9.16
2022-12-24T12:57:49.515Z,9.18
2022-12-24T12:58:49.691Z,9.18
2022-12-24T12:59:49.814Z,9.19
2022-12-24T13:00:50.027Z,9.21
2022-12-24T13:01:50.334Z,9.22
2022-12-24T13:02:50.354Z,9.21
2022-12-24T13:03:50.322Z,9.21
2022-12-24T13:04:50.467Z,9.21
2022-12-24T13:05:50.595Z,9.21
2022-12-24T13:06:50.818Z,9.21
2022-12-24T13:07:50.827Z,9.24
2022-12-24T13:08:50.983Z,9.27
2022-12-24T13:09:51.117Z,9.26
2022-12-24T13:10:51.285Z,9.27
2022-12-24T13:11:51.442Z,9.29
2022-12-24T13:12:51.591Z,9.26
2022-12-24T13:13:51.725Z,9.27
2022-12-24T13:14:51.863Z,9.27
2022-12-24T13:15:52.012Z,9.29
2022-12-24T13:16:52.255Z,9.29
2022-12-24T13:17:52.285Z,9.31
2022-12-24T13:18:52.429Z,9.33
2022-12-24T13:19:52.564Z,9.34
2022-12-24T13:20:52.691Z,9.33
2022-12-24T13:21:52.835Z,9.36